createdAt,value
2022-11-25T00:01:34.076Z,97318.07
2022-11-25T00:04:02.864Z,97322.74
2022-11-25T00:06:33.769Z,97323.95
2022-11-25T00:09:01.865Z,97324.32
2022-11-25T00:11:30.071Z,97326.06
2022-11-25T00:13:58.601Z,97327.62
2022-11-25T00:16:26.865Z,97331.79
2022-11-25T00:18:56.555Z,97332.83
2022-11-25T00:21:27.478Z,97332.81
2022-11-25T00:24:00.874Z,97334.02
2022-11-25T00:26:31.307Z,97331.41
2022-11-25T00:29:01.940Z,97334.34
2022-11-25T00:31:32.959Z,97337.27
2022-11-25T00:34:01.399Z,97337.09
2022-11-25T00:36:32.329Z,97336.55
2022-11-25T00:39:24.561Z,97339.99
2022-11-25T00:42:11.186Z,97338.96
2022-11-25T00:44:40.906Z,97339.33
2022-11-25T00:47:13.128Z,97339.19
2022-11-25T00:49:49.005Z,97339.19
2022-11-25T00:52:19.683Z,97335.02
2022-11-25T00:54:50.158Z,97337.62
2022-11-25T00:57:20.324Z,97346.62
2022-11-25T00:59:49.091Z,97344.20
2022-11-25T01:02:19.117Z,97346.11
2022-11-25T01:04:47.708Z,97346.98
2022-11-25T01:07:18.145Z,97350.77
2022-11-25T01:09:46.248Z,97355.61
2022-11-25T01:12:14.262Z,97357.85
2022-11-25T01:14:42.220Z,97362.36
2022-11-25T01:17:10.347Z,97358.89
2022-11-25T01:19:40.586Z,97361.16
2022-11-25T01:22:09.661Z,97366.52
2022-11-25T01:24:38.030Z,97366.70
2022-11-25T01:27:06.655Z,97372.41
2022-11-25T01:29:34.770Z,97370.52
2022-11-25T01:32:02.844Z,97372.78
2022-11-25T01:34:32.668Z,97375.20
2022-11-25T01:37:00.778Z,97376.08
2022-11-25T01:39:32.904Z,97383.69
2022-11-25T01:42:02.378Z,97386.12
2022-11-25T01:44:32.520Z,97384.91
2022-11-25T01:47:12.949Z,97391.66
2022-11-25T01:49:48.832Z,97389.58
2022-11-25T01:52:31.867Z,97392.00
2022-11-25T01:55:29.941Z,97395.98
2022-11-25T01:58:08.965Z,97395.81
2022-11-25T02:00:38.262Z,97398.06
2022-11-25T02:03:07.857Z,97398.59
2022-11-25T02:06:03.134Z,97401.19
2022-11-25T02:08:33.770Z,97398.07
2022-11-25T02:11:04.687Z,97398.58
2022-11-25T02:13:33.751Z,97402.55
2022-11-25T02:16:01.798Z,97403.08
2022-11-25T02:18:30.506Z,97407.04
2022-11-25T02:20:58.623Z,97413.60
2022-11-25T02:23:41.867Z,97418.79
2022-11-25T02:26:10.872Z,97425.20
2022-11-25T02:28:39.765Z,97422.27
2022-11-25T02:31:08.440Z,97421.74
2022-11-25T02:33:37.044Z,97423.13
2022-11-25T02:36:07.322Z,97420.70
2022-11-25T02:38:39.546Z,97420.70
2022-11-25T02:41:17.834Z,97422.25
2022-11-25T02:43:48.643Z,97420.34
2022-11-25T02:46:22.493Z,97425.70
2022-11-25T02:49:09.961Z,97427.43
2022-11-25T02:51:41.935Z,97430.71
2022-11-25T02:54:12.211Z,97433.30
2022-11-25T02:56:40.747Z,97435.20
2022-11-25T02:59:10.597Z,97435.55
2022-11-25T03:01:39.517Z,97438.49
2022-11-25T03:04:08.849Z,97439.70
2022-11-25T03:06:37.198Z,97443.67
2022-11-25T03:09:05.457Z,97452.67
2022-11-25T03:11:52.260Z,97457.67
2022-11-25T03:14:21.586Z,97459.23
2022-11-25T03:16:50.074Z,97459.05
2022-11-25T03:19:18.105Z,97460.08
2022-11-25T03:21:46.078Z,97460.05
2022-11-25T03:24:14.097Z,97458.15
2022-11-25T03:26:42.126Z,97464.38
2022-11-25T03:29:10.118Z,97467.48
2022-11-25T03:31:38.832Z,97472.16
2022-11-25T03:34:09.889Z,97475.11
2022-11-25T03:36:38.260Z,97477.55
2022-11-25T03:39:07.101Z,97478.06
2022-11-25T03:41:35.875Z,97478.06
2022-11-25T03:44:04.036Z,97480.13
2022-11-25T03:46:32.140Z,97479.78
2022-11-25T03:49:00.500Z,97483.60
2022-11-25T03:51:29.151Z,97488.95
2022-11-25T03:53:57.411Z,97492.56
2022-11-25T03:56:25.640Z,97493.41
2022-11-25T03:58:53.762Z,97494.10
2022-11-25T04:01:23.534Z,97492.38
2022-11-25T04:03:51.869Z,97498.07
2022-11-25T04:06:21.893Z,97497.03
2022-11-25T04:08:50.966Z,97497.39
2022-11-25T04:11:19.293Z,97499.30
2022-11-25T04:13:48.891Z,97502.41
2022-11-25T04:16:22.674Z,97506.55
2022-11-25T04:18:51.299Z,97508.80
2022-11-25T04:21:19.574Z,97512.77
2022-11-25T04:23:47.815Z,97518.97
2022-11-25T04:26:16.225Z,97521.01
2022-11-25T04:28:46.073Z,97522.58
2022-11-25T04:31:14.858Z,97523.09
2022-11-25T04:33:48.380Z,97530.17
2022-11-25T04:36:19.860Z,97533.65
2022-11-25T04:38:48.542Z,97538.67
2022-11-25T04:41:16.701Z,97541.95
2022-11-25T04:43:45.285Z,97546.80
2022-11-25T04:46:23.753Z,97550.77
2022-11-25T04:48:52.089Z,97553.17
2022-11-25T04:51:20.708Z,97556.63
2022-11-25T04:53:51.399Z,97558.34
2022-11-25T04:56:20.846Z,97562.98
2022-11-25T04:59:09.421Z,97565.58
2022-11-25T05:01:41.011Z,97565.77
2022-11-25T05:04:32.590Z,97571.32
2022-11-25T05:07:01.240Z,97574.44
2022-11-25T05:09:29.507Z,97576.70
2022-11-25T05:12:06.152Z,97578.60
2022-11-25T05:14:36.127Z,97583.81
2022-11-25T05:17:05.427Z,97583.98
2022-11-25T05:19:36.583Z,97590.91
2022-11-25T05:22:04.642Z,97598.88
2022-11-25T05:24:34.046Z,97599.39
2022-11-25T05:27:02.497Z,97605.42
2022-11-25T05:29:32.343Z,97605.93
2022-11-25T05:32:00.821Z,97607.64
2022-11-25T05:34:30.106Z,97613.86
2022-11-25T05:36:58.688Z,97619.38
2022-11-25T05:39:26.996Z,97621.79
2022-11-25T05:42:23.013Z,97622.98
2022-11-25T05:44:51.126Z,97625.59
2022-11-25T05:47:19.171Z,97630.41
2022-11-25T05:49:48.790Z,97633.37
2022-11-25T05:52:16.869Z,97637.70
2022-11-25T05:54:55.714Z,97640.13
2022-11-25T05:57:25.652Z,97641.85
2022-11-25T06:00:01.572Z,97645.65
2022-11-25T06:02:43.142Z,97650.85
2022-11-25T06:05:13.746Z,97656.38
2022-11-25T06:07:41.871Z,97663.98
2022-11-25T06:10:10.539Z,97668.64
2022-11-25T06:12:40.215Z,97671.75
2022-11-25T06:15:09.184Z,97675.71
2022-11-25T06:17:38.116Z,97677.44
2022-11-25T06:20:13.749Z,97677.58
2022-11-25T06:22:41.856Z,97682.09
2022-11-25T06:25:11.296Z,97689.55
2022-11-25T06:28:04.968Z,97690.56
2022-11-25T06:30:27.932Z,97693.48
2022-11-25T06:33:15.840Z,97696.98
2022-11-25T06:35:45.769Z,97695.59
2022-11-25T06:38:13.980Z,97694.91
2022-11-25T06:40:42.103Z,97699.09
2022-11-25T06:43:10.170Z,97701.15
2022-11-25T06:45:38.289Z,97696.98
2022-11-25T06:48:06.716Z,97694.90
2022-11-25T06:50:34.978Z,97694.91
2022-11-25T06:53:03.276Z,97697.33
2022-11-25T06:55:31.413Z,97697.85
2022-11-25T06:58:20.660Z,97695.80
2022-11-25T07:00:47.755Z,97699.81
2022-11-25T07:03:16.012Z,97697.89
2022-11-25T07:05:44.360Z,97699.46
2022-11-25T07:08:12.851Z,97702.79
2022-11-25T07:10:41.104Z,97708.69
2022-11-25T07:13:09.736Z,97707.84
2022-11-25T07:15:38.625Z,97708.72
2022-11-25T07:18:07.010Z,97709.73
2022-11-25T07:20:35.282Z,97714.23
2022-11-25T07:23:03.327Z,97715.88
2022-11-25T07:25:33.177Z,97716.40
2022-11-25T07:28:01.441Z,97722.08
2022-11-25T07:31:21.707Z,97726.58
2022-11-25T07:33:18.452Z,97725.55
2022-11-25T07:35:46.766Z,97728.72
2022-11-25T07:38:18.351Z,97733.16
2022-11-25T07:40:47.342Z,97737.83
2022-11-25T07:43:15.513Z,97738.86
2022-11-25T07:45:44.793Z,97741.24
2022-11-25T07:48:13.643Z,97745.73
2022-11-25T07:50:42.064Z,97743.31
2022-11-25T07:53:10.614Z,97745.96
2022-11-25T07:55:39.356Z,97747.39
2022-11-25T07:58:07.904Z,97747.50
2022-11-25T08:00:36.425Z,97751.54
2022-11-25T08:03:04.797Z,97753.29
2022-11-25T08:05:34.214Z,97756.59
2022-11-25T08:08:02.973Z,97759.71
2022-11-25T08:10:35.656Z,97758.89
2022-11-25T08:13:04.334Z,97762.23
2022-11-25T08:15:33.300Z,97765.58
2022-11-25T08:18:01.595Z,97772.14
2022-11-25T08:20:31.605Z,97773.57
2022-11-25T08:23:00.055Z,97773.16
2022-11-25T08:25:29.899Z,97770.96
2022-11-25T08:28:01.615Z,97771.34
2022-11-25T08:30:30.052Z,97771.34
2022-11-25T08:32:59.208Z,97771.51
2022-11-25T08:35:27.813Z,97769.44
2022-11-25T08:37:56.818Z,97777.34
2022-11-25T08:40:24.990Z,97780.48
2022-11-25T08:42:53.571Z,97781.16
2022-11-25T08:45:22.154Z,97777.86
2022-11-25T08:47:50.550Z,97781.20
2022-11-25T08:50:18.688Z,97782.59
2022-11-25T08:52:47.023Z,97790.91
2022-11-25T08:55:15.311Z,97787.60
2022-11-25T08:57:43.780Z,97792.30
2022-11-25T09:00:12.525Z,97794.77
2022-11-25T09:02:40.889Z,97791.48
2022-11-25T09:05:12.847Z,97789.61
2022-11-25T09:07:41.384Z,97788.40
2022-11-25T09:10:14.761Z,97790.10
2022-11-25T09:12:43.172Z,97785.27
2022-11-25T09:15:12.324Z,97784.23
2022-11-25T09:17:40.599Z,97784.91
2022-11-25T09:20:09.345Z,97786.30
2022-11-25T09:22:38.077Z,97791.50
2022-11-25T09:25:07.392Z,97792.85
2022-11-25T09:27:36.165Z,97783.82
2022-11-25T09:30:05.246Z,97786.46
2022-11-25T09:32:33.975Z,97786.48
2022-11-25T09:35:02.459Z,97787.20
2022-11-25T09:37:30.944Z,97784.45
2022-11-25T09:39:59.512Z,97791.90
2022-11-25T09:42:51.969Z,97791.39
2022-11-25T09:45:45.117Z,97794.16
2022-11-25T09:48:31.362Z,97796.91
2022-11-25T09:51:02.790Z,97799.68
2022-11-25T09:53:52.421Z,97793.44
2022-11-25T09:56:30.272Z,97796.02
2022-11-25T09:59:07.204Z,97794.99
2022-11-25T10:01:46.141Z,97799.68
2022-11-25T10:04:22.443Z,97800.20
2022-11-25T10:06:57.229Z,97804.19
2022-11-25T10:09:31.992Z,97800.57
2022-11-25T10:12:18.497Z,97797.10
2022-11-25T10:14:50.377Z,97795.68
2022-11-25T10:17:28.576Z,97799.98
2022-11-25T10:20:13.501Z,97797.58
2022-11-25T10:22:48.386Z,97791.35
2022-11-25T10:25:30.523Z,97799.84
2022-11-25T10:28:17.660Z,97800.04
2022-11-25T10:30:55.773Z,97795.71
2022-11-25T10:33:40.049Z,97800.02
2022-11-25T10:36:18.408Z,97807.42
2022-11-25T10:38:49.727Z,97811.96
2022-11-25T10:41:22.458Z,97810.24
2022-11-25T10:43:51.173Z,97815.63
2022-11-25T10:47:12.344Z,97808.67
2022-11-25T10:49:41.299Z,97809.73
2022-11-25T10:52:14.485Z,97814.21
2022-11-25T10:54:56.629Z,97804.27
2022-11-25T10:57:29.956Z,97810.69
2022-11-25T11:00:00.823Z,97811.75
2022-11-25T11:02:37.950Z,97816.25
2022-11-25T11:05:09.854Z,97820.41
2022-11-25T11:07:40.950Z,97821.13
2022-11-25T11:10:15.863Z,97826.70
2022-11-25T11:13:05.930Z,97831.41
2022-11-25T11:15:49.762Z,97835.94
2022-11-25T11:18:21.180Z,97836.09
2022-11-25T11:20:52.625Z,97838.46
2022-11-25T11:23:22.037Z,97838.48
2022-11-25T11:26:02.014Z,97836.77
2022-11-25T11:28:41.776Z,97840.55
2022-11-25T11:31:20.710Z,97842.44
2022-11-25T11:33:49.086Z,97845.85
2022-11-25T11:36:42.193Z,97842.52
2022-11-25T11:39:25.625Z,97844.11
2022-11-25T11:42:19.175Z,97847.77
2022-11-25T11:44:53.251Z,97848.11
2022-11-25T11:47:59.788Z,97848.08
2022-11-25T11:50:27.964Z,97845.84
2022-11-25T11:53:16.980Z,97847.08
2022-11-25T11:56:36.591Z,97843.95
2022-11-25T11:59:04.728Z,97835.13
2022-11-25T12:01:44.936Z,97847.25
2022-11-25T12:04:20.152Z,97843.28
2022-11-25T12:07:02.632Z,97844.02
2022-11-25T12:09:36.602Z,97838.83
2022-11-25T12:12:09.970Z,97841.78
2022-11-25T12:14:50.316Z,97846.81
2022-11-25T12:17:25.599Z,97851.31
2022-11-25T12:20:24.490Z,97853.16
2022-11-25T12:23:02.664Z,97855.42
2022-11-25T12:25:38.039Z,97854.75
2022-11-25T12:28:30.684Z,97852.14
2022-11-25T12:31:23.649Z,97863.40
2022-11-25T12:33:56.940Z,97874.77
2022-11-25T12:36:39.520Z,97877.53
2022-11-25T12:39:41.728Z,97875.09
2022-11-25T12:42:25.661Z,97879.25
2022-11-25T12:45:16.231Z,97881.48
2022-11-25T12:47:45.580Z,97884.55
2022-11-25T12:50:27.118Z,97881.10
2022-11-25T12:53:01.592Z,97883.04
2022-11-25T12:55:35.136Z,97879.88
2022-11-25T12:58:36.592Z,97881.96
2022-11-25T13:01:11.009Z,97888.00
2022-11-25T13:03:59.404Z,97885.58
2022-11-25T13:06:46.723Z,97890.45
2022-11-25T13:09:34.001Z,97893.42
2022-11-25T13:12:21.167Z,97899.15
2022-11-25T13:15:05.640Z,97906.08
2022-11-25T13:17:40.258Z,97906.91
2022-11-25T13:20:44.423Z,97905.73
2022-11-25T13:23:13.630Z,97907.31
2022-11-25T13:25:45.237Z,97909.16
2022-11-25T13:28:36.827Z,97907.59
2022-11-25T13:31:16.482Z,97912.60
2022-11-25T13:33:44.989Z,97910.99
2022-11-25T13:36:19.702Z,97912.73
2022-11-25T13:38:52.081Z,97918.13
2022-11-25T13:41:23.023Z,97921.17
2022-11-25T13:44:04.820Z,97925.47
2022-11-25T13:46:33.061Z,97923.33
2022-11-25T13:49:02.313Z,97921.88
2022-11-25T13:51:31.060Z,97924.95
2022-11-25T13:54:06.788Z,97927.35
2022-11-25T13:56:37.302Z,97926.10
2022-11-25T13:59:11.821Z,97930.05
2022-11-25T14:01:47.050Z,97932.59
2022-11-25T14:04:16.603Z,97935.92
2022-11-25T14:07:20.085Z,97932.83
2022-11-25T14:10:07.829Z,97936.46
2022-11-25T14:12:57.509Z,97932.63
2022-11-25T14:15:47.812Z,97930.92
2022-11-25T14:21:42.177Z,97942.96
2022-11-25T14:24:25.745Z,97949.71
2022-11-25T14:26:55.566Z,97957.30
2022-11-25T14:29:30.632Z,97960.89
2022-11-25T14:32:24.455Z,97962.27
2022-11-25T14:35:02.365Z,97971.59
2022-11-25T14:37:41.923Z,97971.10
2022-11-25T14:40:20.550Z,97967.69
2022-11-25T14:42:53.100Z,97974.30
2022-11-25T14:45:30.174Z,97973.45
2022-11-25T14:47:58.733Z,97974.84
2022-11-25T14:50:34.725Z,97977.06
2022-11-25T14:53:09.690Z,97976.20
2022-11-25T14:55:38.382Z,97981.70
2022-11-25T14:58:06.592Z,97979.77
2022-11-25T15:00:35.892Z,97982.55
2022-11-25T15:03:06.874Z,97981.46
2022-11-25T15:05:41.387Z,97984.41
2022-11-25T15:08:16.231Z,97979.34
2022-11-25T15:10:44.940Z,97984.00
2022-11-25T15:13:32.465Z,97983.77
2022-11-25T15:16:06.596Z,97985.94
2022-11-25T15:18:35.942Z,97990.05
2022-11-25T15:21:04.665Z,97986.16
2022-11-25T15:23:37.522Z,97986.94
2022-11-25T15:26:17.100Z,97990.13
2022-11-25T15:28:46.262Z,97997.33
2022-11-25T15:31:20.972Z,97997.59
2022-11-25T15:33:57.067Z,97998.09
2022-11-25T15:36:27.016Z,97996.50
2022-11-25T15:38:55.745Z,97997.88
2022-11-25T15:41:36.421Z,97999.23
2022-11-25T15:44:06.657Z,97997.45
2022-11-25T15:46:36.109Z,97997.24
2022-11-25T15:49:16.512Z,97997.88
2022-11-25T15:51:56.747Z,98002.86
2022-11-25T15:54:49.140Z,98007.79
2022-11-25T15:57:30.273Z,98010.40
2022-11-25T15:59:58.782Z,98012.28
2022-11-25T16:02:38.656Z,98014.31
2022-11-25T16:05:16.191Z,98014.14
2022-11-25T16:07:50.560Z,98014.60
2022-11-25T16:10:24.118Z,98011.15
2022-11-25T16:13:21.732Z,98014.30
2022-11-25T16:16:21.965Z,98017.06
2022-11-25T16:18:53.695Z,98014.42
2022-11-25T16:21:28.152Z,98015.06
2022-11-25T16:24:07.858Z,98013.44
2022-11-25T16:27:01.093Z,98015.74
2022-11-25T16:29:48.913Z,98017.87
2022-11-25T16:32:22.472Z,98020.20
2022-11-25T16:34:51.801Z,98026.73
2022-11-25T16:37:20.517Z,98027.39
2022-11-25T16:39:48.762Z,98031.15
2022-11-25T16:42:20.727Z,98029.94
2022-11-25T16:44:51.751Z,98030.98
2022-11-25T16:47:21.966Z,98032.19
2022-11-25T16:49:50.424Z,98028.90
2022-11-25T16:52:18.584Z,98027.67
2022-11-25T16:54:47.752Z,98024.19
2022-11-25T16:57:22.086Z,98027.05
2022-11-25T16:59:55.957Z,98028.37
2022-11-25T17:02:27.189Z,98028.98
2022-11-25T17:04:58.609Z,98031.73
2022-11-25T17:07:34.686Z,98030.34
2022-11-25T17:10:04.565Z,98035.89
2022-11-25T17:12:35.432Z,98032.98
2022-11-25T17:15:06.637Z,98031.45
2022-11-25T17:17:35.518Z,98036.30
2022-11-25T17:20:04.857Z,98036.84
2022-11-25T17:22:39.016Z,98039.42
2022-11-25T17:25:10.310Z,98043.10
2022-11-25T17:27:39.964Z,98048.13
2022-11-25T17:30:18.217Z,98049.87
2022-11-25T17:32:47.977Z,98047.48
2022-11-25T17:35:19.182Z,98046.80
2022-11-25T17:37:47.883Z,98050.81
2022-11-25T17:40:16.524Z,98055.18
2022-11-25T17:42:46.323Z,98056.96
2022-11-25T17:45:17.466Z,98060.45
2022-11-25T17:47:46.699Z,98064.64
2022-11-25T17:50:24.161Z,98063.00
2022-11-25T17:52:53.005Z,98063.25
2022-11-25T17:55:23.020Z,98061.77
2022-11-25T17:57:51.230Z,98061.96
2022-11-25T18:00:21.838Z,98057.05
2022-11-25T18:02:50.395Z,98062.94
2022-11-25T18:05:22.496Z,98065.51
2022-11-25T18:07:51.275Z,98068.25
2022-11-25T18:10:24.794Z,98071.16
2022-11-25T18:12:55.653Z,98072.16
2022-11-25T18:15:27.104Z,98074.53
2022-11-25T18:18:02.190Z,98076.04
2022-11-25T18:20:32.954Z,98077.38
2022-11-25T18:23:01.400Z,98079.09
2022-11-25T18:25:32.097Z,98082.38
2022-11-25T18:28:01.287Z,98087.18
2022-11-25T18:30:31.629Z,98088.06
2022-11-25T18:33:01.795Z,98091.02
2022-11-25T18:35:36.023Z,98098.15
2022-11-25T18:38:06.530Z,98099.05
2022-11-25T18:40:40.484Z,98097.30
2022-11-25T18:43:17.298Z,98101.07
2022-11-25T18:45:46.098Z,98099.40
2022-11-25T18:48:17.435Z,98097.59
2022-11-25T18:50:47.187Z,98099.35
2022-11-25T18:53:15.567Z,98101.80
2022-11-25T18:55:44.428Z,98102.31
2022-11-25T18:58:19.220Z,98098.30
2022-11-25T19:00:49.498Z,98096.80
2022-11-25T19:03:36.185Z,98101.38
2022-11-25T19:06:04.897Z,98104.15
2022-11-25T19:08:33.278Z,98105.48
2022-11-25T19:11:01.607Z,98105.60
2022-11-25T19:13:35.185Z,98111.08
2022-11-25T19:16:13.114Z,98112.10
2022-11-25T19:18:44.172Z,98117.11
2022-11-25T19:21:17.331Z,98122.46
2022-11-25T19:23:46.458Z,98122.16
2022-11-25T19:26:19.248Z,98126.04
2022-11-25T19:28:50.490Z,98127.27
2022-11-25T19:31:19.895Z,98131.66
2022-11-25T19:33:50.991Z,98137.56
2022-11-25T19:36:27.082Z,98140.53
2022-11-25T19:38:55.322Z,98144.04
2022-11-25T19:41:24.186Z,98142.56
2022-11-25T19:43:53.003Z,98138.52
2022-11-25T19:46:46.206Z,98144.54
2022-11-25T19:49:20.252Z,98145.03
2022-11-25T19:51:49.357Z,98150.18
2022-11-25T19:54:19.363Z,98160.22
2022-11-25T19:56:47.785Z,98162.45
2022-11-25T19:59:15.978Z,98164.14
2022-11-25T20:01:46.580Z,98168.91
2022-11-25T20:04:22.555Z,98166.40
2022-11-25T20:06:51.762Z,98162.17
2022-11-25T20:09:20.091Z,98164.33
2022-11-25T20:11:49.227Z,98164.91
2022-11-25T20:14:18.165Z,98167.88
2022-11-25T20:16:46.589Z,98168.43
2022-11-25T20:19:18.297Z,98169.84
2022-11-25T20:21:47.660Z,98168.80
2022-11-25T20:24:19.973Z,98169.69
2022-11-25T20:26:49.109Z,98172.09
2022-11-25T20:29:24.527Z,98175.52
2022-11-25T20:31:56.355Z,98177.23
2022-11-25T20:34:25.067Z,98177.76
2022-11-25T20:36:53.346Z,98177.23
2022-11-25T20:39:21.836Z,98180.17
2022-11-25T20:41:51.433Z,98185.30
2022-11-25T20:44:20.519Z,98186.84
2022-11-25T20:46:48.700Z,98187.86
2022-11-25T20:49:29.394Z,98193.04
2022-11-25T20:51:57.986Z,98197.00
2022-11-25T20:54:26.076Z,98198.98
2022-11-25T20:56:57.358Z,98200.14
2022-11-25T20:59:25.629Z,98200.56
2022-11-25T21:01:54.912Z,98200.39
2022-11-25T21:04:23.575Z,98199.55
2022-11-25T21:06:51.807Z,98203.73
2022-11-25T21:09:24.690Z,98206.81
2022-11-25T21:11:53.177Z,98209.52
2022-11-25T21:14:21.386Z,98209.83
2022-11-25T21:16:49.662Z,98207.89
2022-11-25T21:19:18.240Z,98207.11
2022-11-25T21:21:49.729Z,98209.49
2022-11-25T21:24:50.098Z,98216.69
2022-11-25T21:27:20.123Z,98222.04
2022-11-25T21:29:48.526Z,98227.69
2022-11-25T21:32:22.528Z,98230.96
2022-11-25T21:34:51.445Z,98230.78
2022-11-25T21:37:32.602Z,98233.57
2022-11-25T21:40:01.157Z,98237.41
2022-11-25T21:42:31.604Z,98240.55
2022-11-25T21:44:59.613Z,98240.76
2022-11-25T21:47:29.638Z,98241.65
2022-11-25T21:49:58.392Z,98250.98
2022-11-25T21:52:26.631Z,98258.27
2022-11-25T21:54:54.891Z,98260.21
2022-11-25T21:57:28.023Z,98260.02
2022-11-25T21:59:56.268Z,98263.31
2022-11-25T22:02:25.221Z,98260.35
2022-11-25T22:04:53.500Z,98262.07
2022-11-25T22:07:25.065Z,98260.33
2022-11-25T22:09:55.877Z,98258.55
2022-11-25T22:12:28.917Z,98261.78
2022-11-25T22:14:59.147Z,98264.52
2022-11-25T22:17:27.986Z,98265.88
2022-11-25T22:19:57.204Z,98271.10
2022-11-25T22:22:25.226Z,98272.31
2022-11-25T22:24:53.383Z,98276.33
2022-11-25T22:27:24.988Z,98278.10
2022-11-25T22:29:54.741Z,98276.09
2022-11-25T22:32:23.460Z,98275.63
2022-11-25T22:34:51.653Z,98276.16
2022-11-25T22:37:24.937Z,98278.41
2022-11-25T22:39:53.095Z,98282.70
2022-11-25T22:42:31.348Z,98281.38
2022-11-25T22:45:02.648Z,98281.36
2022-11-25T22:47:44.455Z,98282.71
2022-11-25T22:50:23.426Z,98279.19
2022-11-25T22:52:53.605Z,98275.46
2022-11-25T22:55:27.456Z,98273.38
2022-11-25T22:57:58.523Z,98277.14
2022-11-25T23:00:32.003Z,98276.46
2022-11-25T23:03:02.943Z,98277.64
2022-11-25T23:05:34.240Z,98279.45
2022-11-25T23:08:17.282Z,98281.79
2022-11-25T23:10:46.801Z,98280.49
2022-11-25T23:13:17.262Z,98278.54
2022-11-25T23:15:49.645Z,98275.88
2022-11-25T23:18:43.178Z,98273.39
2022-11-25T23:21:20.267Z,98276.25
2022-11-25T23:23:48.638Z,98270.06
2022-11-25T23:26:16.784Z,98270.10
2022-11-25T23:28:45.022Z,98265.11
2022-11-25T23:31:15.052Z,98263.89
2022-11-25T23:33:49.218Z,98265.76
2022-11-25T23:36:28.658Z,98266.42
2022-11-25T23:38:59.210Z,98261.71
2022-11-25T23:41:30.306Z,98253.34
2022-11-25T23:44:06.178Z,98256.59
2022-11-25T23:46:37.064Z,98257.34
2022-11-25T23:49:12.620Z,98256.65
2022-11-25T23:51:40.891Z,98261.89
2022-11-25T23:54:12.757Z,98263.86
2022-11-25T23:56:40.933Z,98263.96
2022-11-25T23:59:16.772Z,98265.09
